sensor_id;sensor_type;location;lat;lon;timestamp;temperature;humidity
79760;DHT22;70512;42.122;24.732;2023-11-19T00:01:18;7.90;59.00
79760;DHT22;70512;42.122;24.732;2023-11-19T00:03:45;7.90;58.90
79760;DHT22;70512;42.122;24.732;2023-11-19T00:06:13;7.90;58.90
79760;DHT22;70512;42.122;24.732;2023-11-19T00:08:41;8.00;58.80
79760;DHT22;70512;42.122;24.732;2023-11-19T00:11:13;7.90;58.90
79760;DHT22;70512;42.122;24.732;2023-11-19T00:13:42;7.90;59.00
79760;DHT22;70512;42.122;24.732;2023-11-19T00:16:09;7.90;58.80
79760;DHT22;70512;42.122;24.732;2023-11-19T00:18:38;8.00;58.70
79760;DHT22;70512;42.122;24.732;2023-11-19T00:21:06;8.00;58.80
79760;DHT22;70512;42.122;24.732;2023-11-19T00:23:34;8.00;59.10
79760;DHT22;70512;42.122;24.732;2023-11-19T00:26:02;8.00;59.30
79760;DHT22;70512;42.122;24.732;2023-11-19T00:28:32;8.00;59.60
79760;DHT22;70512;42.122;24.732;2023-11-19T00:31:00;8.00;59.50
79760;DHT22;70512;42.122;24.732;2023-11-19T00:33:29;8.00;59.70
79760;DHT22;70512;42.122;24.732;2023-11-19T00:35:57;7.90;59.70
79760;DHT22;70512;42.122;24.732;2023-11-19T00:38:25;7.90;59.80
79760;DHT22;70512;42.122;24.732;2023-11-19T00:40:56;7.80;59.90
79760;DHT22;70512;42.122;24.732;2023-11-19T00:43:23;7.90;59.90
79760;DHT22;70512;42.122;24.732;2023-11-19T00:45:52;7.90;59.70
79760;DHT22;70512;42.122;24.732;2023-11-19T00:48:20;7.90;59.70
79760;DHT22;70512;42.122;24.732;2023-11-19T00:50:47;7.90;59.60
79760;DHT22;70512;42.122;24.732;2023-11-19T00:53:17;7.90;59.50
79760;DHT22;70512;42.122;24.732;2023-11-19T00:55:44;7.90;59.60
79760;DHT22;70512;42.122;24.732;2023-11-19T00:58:12;7.90;60.00
79760;DHT22;70512;42.122;24.732;2023-11-19T01:00:40;8.00;59.50
79760;DHT22;70512;42.122;24.732;2023-11-19T01:03:09;8.00;59.50
79760;DHT22;70512;42.122;24.732;2023-11-19T01:05:38;8.00;59.00
79760;DHT22;70512;42.122;24.732;2023-11-19T01:08:05;7.90;59.70
79760;DHT22;70512;42.122;24.732;2023-11-19T01:10:33;7.90;59.80
79760;DHT22;70512;42.122;24.732;2023-11-19T01:13:01;7.90;59.90
79760;DHT22;70512;42.122;24.732;2023-11-19T01:15:31;7.80;59.90
79760;DHT22;70512;42.122;24.732;2023-11-19T01:17:59;7.90;60.10
79760;DHT22;70512;42.122;24.732;2023-11-19T01:20:29;7.80;60.20
79760;DHT22;70512;42.122;24.732;2023-11-19T01:22:56;7.80;60.40
79760;DHT22;70512;42.122;24.732;2023-11-19T01:25:25;7.80;60.30
79760;DHT22;70512;42.122;24.732;2023-11-19T01:27:53;7.80;60.40
79760;DHT22;70512;42.122;24.732;2023-11-19T01:30:20;7.80;60.60
79760;DHT22;70512;42.122;24.732;2023-11-19T01:32:48;7.70;60.40
79760;DHT22;70512;42.122;24.732;2023-11-19T01:35:15;7.80;60.40
79760;DHT22;70512;42.122;24.732;2023-11-19T01:37:43;7.80;61.30
79760;DHT22;70512;42.122;24.732;2023-11-19T01:40:11;7.70;60.70
79760;DHT22;70512;42.122;24.732;2023-11-19T01:42:40;7.70;60.80
79760;DHT22;70512;42.122;24.732;2023-11-19T01:45:08;7.70;61.00
79760;DHT22;70512;42.122;24.732;2023-11-19T01:47:36;7.70;60.90
79760;DHT22;70512;42.122;24.732;2023-11-19T01:50:06;7.70;60.90
79760;DHT22;70512;42.122;24.732;2023-11-19T01:52:41;7.80;60.70
79760;DHT22;70512;42.122;24.732;2023-11-19T01:55:08;7.80;60.80
79760;DHT22;70512;42.122;24.732;2023-11-19T01:57:36;7.80;60.90
79760;DHT22;70512;42.122;24.732;2023-11-19T02:00:05;7.70;60.90
79760;DHT22;70512;42.122;24.732;2023-11-19T02:02:35;7.70;61.10
79760;DHT22;70512;42.122;24.732;2023-11-19T02:05:03;7.70;61.10
79760;DHT22;70512;42.122;24.732;2023-11-19T02:07:31;7.70;61.10
79760;DHT22;70512;42.122;24.732;2023-11-19T02:09:59;7.70;61.00
79760;DHT22;70512;42.122;24.732;2023-11-19T02:12:29;7.80;60.90
79760;DHT22;70512;42.122;24.732;2023-11-19T02:15:01;7.80;60.50
79760;DHT22;70512;42.122;24.732;2023-11-19T02:17:30;7.80;60.50
79760;DHT22;70512;42.122;24.732;2023-11-19T02:19:58;7.80;60.60
79760;DHT22;70512;42.122;24.732;2023-11-19T02:22:26;7.90;60.60
79760;DHT22;70512;42.122;24.732;2023-11-19T02:24:57;7.80;60.60
79760;DHT22;70512;42.122;24.732;2023-11-19T02:29:55;7.80;60.80
79760;DHT22;70512;42.122;24.732;2023-11-19T02:32:27;7.80;61.50
79760;DHT22;70512;42.122;24.732;2023-11-19T02:34:58;7.70;60.90
79760;DHT22;70512;42.122;24.732;2023-11-19T02:37:26;7.70;61.00
79760;DHT22;70512;42.122;24.732;2023-11-19T02:39:54;7.80;61.00
79760;DHT22;70512;42.122;24.732;2023-11-19T02:42:22;7.80;61.00
79760;DHT22;70512;42.122;24.732;2023-11-19T02:44:50;7.80;61.10
79760;DHT22;70512;42.122;24.732;2023-11-19T02:47:18;7.80;60.90
79760;DHT22;70512;42.122;24.732;2023-11-19T02:49:47;7.80;61.10
79760;DHT22;70512;42.122;24.732;2023-11-19T02:52:15;7.70;61.10
79760;DHT22;70512;42.122;24.732;2023-11-19T02:54:43;7.70;61.20
79760;DHT22;70512;42.122;24.732;2023-11-19T02:57:11;7.70;61.60
79760;DHT22;70512;42.122;24.732;2023-11-19T02:59:40;7.70;61.70
79760;DHT22;70512;42.122;24.732;2023-11-19T03:02:09;7.70;61.90
79760;DHT22;70512;42.122;24.732;2023-11-19T03:04:42;7.70;62.10
79760;DHT22;70512;42.122;24.732;2023-11-19T03:07:10;7.60;61.80
79760;DHT22;70512;42.122;24.732;2023-11-19T03:09:39;7.70;62.10
79760;DHT22;70512;42.122;24.732;2023-11-19T03:12:07;7.60;62.30
79760;DHT22;70512;42.122;24.732;2023-11-19T03:14:35;7.50;62.40
79760;DHT22;70512;42.122;24.732;2023-11-19T03:17:03;7.50;62.80
79760;DHT22;70512;42.122;24.732;2023-11-19T03:19:31;7.40;63.00
79760;DHT22;70512;42.122;24.732;2023-11-19T03:21:59;7.40;62.90
79760;DHT22;70512;42.122;24.732;2023-11-19T03:24:26;7.30;63.30
79760;DHT22;70512;42.122;24.732;2023-11-19T03:26:54;7.30;63.40
79760;DHT22;70512;42.122;24.732;2023-11-19T03:29:21;7.30;63.20
79760;DHT22;70512;42.122;24.732;2023-11-19T03:31:49;7.30;63.00
79760;DHT22;70512;42.122;24.732;2023-11-19T03:34:17;7.30;62.70
79760;DHT22;70512;42.122;24.732;2023-11-19T03:36:45;7.30;62.90
79760;DHT22;70512;42.122;24.732;2023-11-19T03:39:12;7.30;62.80
79760;DHT22;70512;42.122;24.732;2023-11-19T03:41:40;7.20;62.70
79760;DHT22;70512;42.122;24.732;2023-11-19T03:44:08;7.20;62.90
79760;DHT22;70512;42.122;24.732;2023-11-19T03:46:35;7.20;62.70
79760;DHT22;70512;42.122;24.732;2023-11-19T03:49:05;7.20;62.70
79760;DHT22;70512;42.122;24.732;2023-11-19T03:51:34;7.20;62.50
79760;DHT22;70512;42.122;24.732;2023-11-19T03:54:01;7.20;62.30
79760;DHT22;70512;42.122;24.732;2023-11-19T03:56:29;7.20;62.00
79760;DHT22;70512;42.122;24.732;2023-11-19T03:58:57;7.30;61.80
79760;DHT22;70512;42.122;24.732;2023-11-19T04:01:25;7.30;61.50
79760;DHT22;70512;42.122;24.732;2023-11-19T04:03:52;7.30;61.50
79760;DHT22;70512;42.122;24.732;2023-11-19T04:06:20;7.30;61.50
79760;DHT22;70512;42.122;24.732;2023-11-19T04:08:47;7.30;61.50
79760;DHT22;70512;42.122;24.732;2023-11-19T04:11:16;7.30;61.30
79760;DHT22;70512;42.122;24.732;2023-11-19T04:13:43;7.30;61.00
79760;DHT22;70512;42.122;24.732;2023-11-19T04:16:11;7.40;60.90
79760;DHT22;70512;42.122;24.732;2023-11-19T04:18:38;7.40;61.10
79760;DHT22;70512;42.122;24.732;2023-11-19T04:21:07;7.40;60.30
79760;DHT22;70512;42.122;24.732;2023-11-19T04:23:34;7.40;60.20
79760;DHT22;70512;42.122;24.732;2023-11-19T04:26:03;7.40;60.10
79760;DHT22;70512;42.122;24.732;2023-11-19T04:28:31;7.40;60.20
79760;DHT22;70512;42.122;24.732;2023-11-19T04:30:59;7.40;60.20
79760;DHT22;70512;42.122;24.732;2023-11-19T04:33:26;7.40;60.30
79760;DHT22;70512;42.122;24.732;2023-11-19T04:35:54;7.40;60.60
79760;DHT22;70512;42.122;24.732;2023-11-19T04:38:21;7.30;61.10
79760;DHT22;70512;42.122;24.732;2023-11-19T04:40:49;7.30;61.70
79760;DHT22;70512;42.122;24.732;2023-11-19T04:43:17;7.20;62.20
79760;DHT22;70512;42.122;24.732;2023-11-19T04:45:45;7.10;62.50
79760;DHT22;70512;42.122;24.732;2023-11-19T04:48:12;7.00;62.70
79760;DHT22;70512;42.122;24.732;2023-11-19T04:50:40;7.00;62.80
79760;DHT22;70512;42.122;24.732;2023-11-19T04:53:07;7.00;62.40
79760;DHT22;70512;42.122;24.732;2023-11-19T04:55:35;7.00;62.30
79760;DHT22;70512;42.122;24.732;2023-11-19T04:58:02;7.00;62.20
79760;DHT22;70512;42.122;24.732;2023-11-19T05:00:30;6.90;62.20
79760;DHT22;70512;42.122;24.732;2023-11-19T05:02:57;6.90;62.30
79760;DHT22;70512;42.122;24.732;2023-11-19T05:05:25;6.80;62.40
79760;DHT22;70512;42.122;24.732;2023-11-19T05:07:53;6.80;62.70
79760;DHT22;70512;42.122;24.732;2023-11-19T05:10:21;6.80;62.70
79760;DHT22;70512;42.122;24.732;2023-11-19T05:12:49;6.80;62.40
79760;DHT22;70512;42.122;24.732;2023-11-19T05:15:18;6.80;62.80
79760;DHT22;70512;42.122;24.732;2023-11-19T05:17:45;6.80;63.20
79760;DHT22;70512;42.122;24.732;2023-11-19T05:20:13;6.80;62.70
79760;DHT22;70512;42.122;24.732;2023-11-19T05:22:42;6.70;62.60
79760;DHT22;70512;42.122;24.732;2023-11-19T05:25:10;6.70;62.90
79760;DHT22;70512;42.122;24.732;2023-11-19T05:27:38;6.70;62.80
79760;DHT22;70512;42.122;24.732;2023-11-19T05:30:06;6.70;63.00
79760;DHT22;70512;42.122;24.732;2023-11-19T05:32:34;6.70;63.10
79760;DHT22;70512;42.122;24.732;2023-11-19T05:35:03;6.60;63.40
79760;DHT22;70512;42.122;24.732;2023-11-19T05:37:31;6.60;63.40
79760;DHT22;70512;42.122;24.732;2023-11-19T05:39:58;6.60;63.60
79760;DHT22;70512;42.122;24.732;2023-11-19T05:42:26;6.60;63.40
79760;DHT22;70512;42.122;24.732;2023-11-19T05:44:54;6.60;63.20
79760;DHT22;70512;42.122;24.732;2023-11-19T05:47:21;6.60;63.00
79760;DHT22;70512;42.122;24.732;2023-11-19T05:49:49;6.70;62.80
79760;DHT22;70512;42.122;24.732;2023-11-19T05:52:16;6.70;62.60
79760;DHT22;70512;42.122;24.732;2023-11-19T05:54:47;6.70;62.30
79760;DHT22;70512;42.122;24.732;2023-11-19T05:57:15;6.70;62.30
79760;DHT22;70512;42.122;24.732;2023-11-19T05:59:45;6.70;62.00
79760;DHT22;70512;42.122;24.732;2023-11-19T06:02:13;6.80;62.10
79760;DHT22;70512;42.122;24.732;2023-11-19T06:04:40;6.80;62.00
79760;DHT22;70512;42.122;24.732;2023-11-19T06:07:10;6.90;61.70
79760;DHT22;70512;42.122;24.732;2023-11-19T06:09:37;6.90;61.30
79760;DHT22;70512;42.122;24.732;2023-11-19T06:12:06;7.00;61.30
79760;DHT22;70512;42.122;24.732;2023-11-19T06:14:34;7.00;61.10
79760;DHT22;70512;42.122;24.732;2023-11-19T06:17:01;7.00;61.30
79760;DHT22;70512;42.122;24.732;2023-11-19T06:19:32;7.00;61.40
79760;DHT22;70512;42.122;24.732;2023-11-19T06:22:00;7.00;61.30
79760;DHT22;70512;42.122;24.732;2023-11-19T06:24:28;7.00;61.40
79760;DHT22;70512;42.122;24.732;2023-11-19T06:26:57;7.10;61.40
79760;DHT22;70512;42.122;24.732;2023-11-19T06:29:25;7.10;61.20
79760;DHT22;70512;42.122;24.732;2023-11-19T06:31:52;7.10;61.00
79760;DHT22;70512;42.122;24.732;2023-11-19T06:34:22;7.20;60.90
79760;DHT22;70512;42.122;24.732;2023-11-19T06:36:49;7.20;60.80
79760;DHT22;70512;42.122;24.732;2023-11-19T06:39:17;7.30;60.50
79760;DHT22;70512;42.122;24.732;2023-11-19T06:41:47;7.40;60.40
79760;DHT22;70512;42.122;24.732;2023-11-19T06:44:15;7.40;60.00
79760;DHT22;70512;42.122;24.732;2023-11-19T06:46:43;7.40;60.40
79760;DHT22;70512;42.122;24.732;2023-11-19T06:49:12;7.50;59.80
79760;DHT22;70512;42.122;24.732;2023-11-19T06:51:42;7.60;59.60
79760;DHT22;70512;42.122;24.732;2023-11-19T06:54:10;7.60;59.50
79760;DHT22;70512;42.122;24.732;2023-11-19T06:56:38;7.60;59.20
79760;DHT22;70512;42.122;24.732;2023-11-19T06:59:08;7.60;59.10
79760;DHT22;70512;42.122;24.732;2023-11-19T07:01:36;7.60;59.10
79760;DHT22;70512;42.122;24.732;2023-11-19T07:04:05;7.70;58.90
79760;DHT22;70512;42.122;24.732;2023-11-19T07:06:35;7.70;58.60
79760;DHT22;70512;42.122;24.732;2023-11-19T07:09:04;7.80;57.90
79760;DHT22;70512;42.122;24.732;2023-11-19T07:11:33;7.80;57.40
79760;DHT22;70512;42.122;24.732;2023-11-19T07:14:02;7.80;57.80
79760;DHT22;70512;42.122;24.732;2023-11-19T07:16:30;7.80;57.80
79760;DHT22;70512;42.122;24.732;2023-11-19T07:18:58;7.80;57.70
79760;DHT22;70512;42.122;24.732;2023-11-19T07:21:27;7.80;57.90
79760;DHT22;70512;42.122;24.732;2023-11-19T07:23:55;7.80;58.10
79760;DHT22;70512;42.122;24.732;2023-11-19T07:26:23;7.90;58.10
79760;DHT22;70512;42.122;24.732;2023-11-19T07:28:51;7.90;57.90
79760;DHT22;70512;42.122;24.732;2023-11-19T07:31:19;8.00;58.40
79760;DHT22;70512;42.122;24.732;2023-11-19T07:33:47;8.10;57.70
79760;DHT22;70512;42.122;24.732;2023-11-19T07:36:14;8.20;57.60
79760;DHT22;70512;42.122;24.732;2023-11-19T07:38:42;8.30;57.00
79760;DHT22;70512;42.122;24.732;2023-11-19T07:41:10;8.40;56.20
79760;DHT22;70512;42.122;24.732;2023-11-19T07:43:42;8.50;55.40
79760;DHT22;70512;42.122;24.732;2023-11-19T07:46:11;8.60;55.00
79760;DHT22;70512;42.122;24.732;2023-11-19T07:48:40;8.60;55.00
79760;DHT22;70512;42.122;24.732;2023-11-19T07:51:10;8.60;54.90
79760;DHT22;70512;42.122;24.732;2023-11-19T07:53:39;8.60;54.80
79760;DHT22;70512;42.122;24.732;2023-11-19T07:56:08;8.50;54.80
79760;DHT22;70512;42.122;24.732;2023-11-19T07:58:35;8.50;54.70
79760;DHT22;70512;42.122;24.732;2023-11-19T08:01:05;8.60;55.20
79760;DHT22;70512;42.122;24.732;2023-11-19T08:03:33;8.60;54.80
79760;DHT22;70512;42.122;24.732;2023-11-19T08:06:01;8.70;54.70
79760;DHT22;70512;42.122;24.732;2023-11-19T08:08:29;8.70;54.10
79760;DHT22;70512;42.122;24.732;2023-11-19T08:11:01;8.80;54.40
79760;DHT22;70512;42.122;24.732;2023-11-19T08:13:27;8.80;54.30
79760;DHT22;70512;42.122;24.732;2023-11-19T08:15:55;8.80;54.20
79760;DHT22;70512;42.122;24.732;2023-11-19T08:18:23;8.90;54.00
79760;DHT22;70512;42.122;24.732;2023-11-19T08:20:50;9.00;53.50
79760;DHT22;70512;42.122;24.732;2023-11-19T08:23:20;9.00;53.40
79760;DHT22;70512;42.122;24.732;2023-11-19T08:25:49;8.90;54.30
79760;DHT22;70512;42.122;24.732;2023-11-19T08:28:17;8.90;53.70
79760;DHT22;70512;42.122;24.732;2023-11-19T08:30:44;8.80;54.00
79760;DHT22;70512;42.122;24.732;2023-11-19T08:33:12;8.70;54.50
79760;DHT22;70512;42.122;24.732;2023-11-19T08:35:41;8.80;54.20
79760;DHT22;70512;42.122;24.732;2023-11-19T08:38:09;9.00;53.70
79760;DHT22;70512;42.122;24.732;2023-11-19T08:40:36;9.00;53.20
79760;DHT22;70512;42.122;24.732;2023-11-19T08:43:05;9.00;53.30
79760;DHT22;70512;42.122;24.732;2023-11-19T08:45:33;8.90;53.50
79760;DHT22;70512;42.122;24.732;2023-11-19T08:48:00;9.00;53.60
79760;DHT22;70512;42.122;24.732;2023-11-19T08:50:29;9.10;53.40
79760;DHT22;70512;42.122;24.732;2023-11-19T08:52:57;9.20;52.80
79760;DHT22;70512;42.122;24.732;2023-11-19T08:55:24;9.20;52.80
79760;DHT22;70512;42.122;24.732;2023-11-19T08:57:52;9.20;52.50
79760;DHT22;70512;42.122;24.732;2023-11-19T09:00:21;9.20;52.50
79760;DHT22;70512;42.122;24.732;2023-11-19T09:02:49;9.10;52.30
79760;DHT22;70512;42.122;24.732;2023-11-19T09:05:17;9.10;52.40
79760;DHT22;70512;42.122;24.732;2023-11-19T09:07:44;9.10;52.10
79760;DHT22;70512;42.122;24.732;2023-11-19T09:10:12;9.10;52.40
79760;DHT22;70512;42.122;24.732;2023-11-19T09:12:39;9.20;52.10
79760;DHT22;70512;42.122;24.732;2023-11-19T09:15:08;9.20;51.90
79760;DHT22;70512;42.122;24.732;2023-11-19T09:17:37;9.30;51.80
79760;DHT22;70512;42.122;24.732;2023-11-19T09:20:06;9.30;51.80
79760;DHT22;70512;42.122;24.732;2023-11-19T09:22:34;9.20;51.90
79760;DHT22;70512;42.122;24.732;2023-11-19T09:25:02;9.30;51.80
79760;DHT22;70512;42.122;24.732;2023-11-19T09:27:31;9.30;51.60
79760;DHT22;70512;42.122;24.732;2023-11-19T09:30:01;9.30;51.20
79760;DHT22;70512;42.122;24.732;2023-11-19T09:32:29;9.40;50.90
79760;DHT22;70512;42.122;24.732;2023-11-19T09:34:57;9.40;50.60
79760;DHT22;70512;42.122;24.732;2023-11-19T09:37:24;9.40;50.60
79760;DHT22;70512;42.122;24.732;2023-11-19T09:39:52;9.50;50.50
79760;DHT22;70512;42.122;24.732;2023-11-19T09:42:20;9.50;50.20
79760;DHT22;70512;42.122;24.732;2023-11-19T09:44:48;9.50;50.50
79760;DHT22;70512;42.122;24.732;2023-11-19T09:47:18;9.50;50.10
79760;DHT22;70512;42.122;24.732;2023-11-19T09:49:48;9.40;50.40
79760;DHT22;70512;42.122;24.732;2023-11-19T09:52:17;9.50;50.60
79760;DHT22;70512;42.122;24.732;2023-11-19T09:54:44;9.50;50.40
79760;DHT22;70512;42.122;24.732;2023-11-19T09:57:12;9.40;50.30
79760;DHT22;70512;42.122;24.732;2023-11-19T09:59:43;9.50;50.50
79760;DHT22;70512;42.122;24.732;2023-11-19T10:02:13;9.60;50.50
79760;DHT22;70512;42.122;24.732;2023-11-19T10:04:43;9.70;50.30
79760;DHT22;70512;42.122;24.732;2023-11-19T10:07:11;9.90;49.90
79760;DHT22;70512;42.122;24.732;2023-11-19T10:09:39;10.00;49.70
79760;DHT22;70512;42.122;24.732;2023-11-19T10:12:07;10.00;49.30
79760;DHT22;70512;42.122;24.732;2023-11-19T10:14:38;9.80;49.00
79760;DHT22;70512;42.122;24.732;2023-11-19T10:17:07;9.80;49.30
79760;DHT22;70512;42.122;24.732;2023-11-19T10:19:35;9.80;49.20
79760;DHT22;70512;42.122;24.732;2023-11-19T10:22:06;10.10;49.00
79760;DHT22;70512;42.122;24.732;2023-11-19T10:24:34;10.20;48.20
79760;DHT22;70512;42.122;24.732;2023-11-19T10:27:08;10.30;47.80
79760;DHT22;70512;42.122;24.732;2023-11-19T10:29:38;10.50;47.70
79760;DHT22;70512;42.122;24.732;2023-11-19T10:32:06;11.00;46.80
79760;DHT22;70512;42.122;24.732;2023-11-19T10:34:34;11.10;45.40
79760;DHT22;70512;42.122;24.732;2023-11-19T10:37:03;11.40;45.40
79760;DHT22;70512;42.122;24.732;2023-11-19T10:39:54;11.90;44.30
79760;DHT22;70512;42.122;24.732;2023-11-19T10:42:22;12.30;43.00
79760;DHT22;70512;42.122;24.732;2023-11-19T10:44:49;12.70;42.30
79760;DHT22;70512;42.122;24.732;2023-11-19T10:47:18;12.90;41.50
79760;DHT22;70512;42.122;24.732;2023-11-19T10:49:47;12.90;41.30
79760;DHT22;70512;42.122;24.732;2023-11-19T10:52:17;13.00;41.00
79760;DHT22;70512;42.122;24.732;2023-11-19T10:54:51;13.00;40.90
79760;DHT22;70512;42.122;24.732;2023-11-19T10:57:20;13.30;40.10
79760;DHT22;70512;42.122;24.732;2023-11-19T10:59:52;13.30;40.30
79760;DHT22;70512;42.122;24.732;2023-11-19T11:02:36;13.50;39.80
79760;DHT22;70512;42.122;24.732;2023-11-19T11:04:52;14.00;38.80
79760;DHT22;70512;42.122;24.732;2023-11-19T11:07:21;14.30;38.20
79760;DHT22;70512;42.122;24.732;2023-11-19T11:09:53;14.50;37.60
79760;DHT22;70512;42.122;24.732;2023-11-19T11:12:22;15.00;37.00
79760;DHT22;70512;42.122;24.732;2023-11-19T11:14:51;15.40;35.80
79760;DHT22;70512;42.122;24.732;2023-11-19T11:17:22;15.60;35.80
79760;DHT22;70512;42.122;24.732;2023-11-19T11:19:51;15.70;34.90
79760;DHT22;70512;42.122;24.732;2023-11-19T11:22:20;15.50;34.80
79760;DHT22;70512;42.122;24.732;2023-11-19T11:27:43;15.50;35.80
79760;DHT22;70512;42.122;24.732;2023-11-19T11:30:46;15.80;34.90
79760;DHT22;70512;42.122;24.732;2023-11-19T11:33:26;16.10;34.20
79760;DHT22;70512;42.122;24.732;2023-11-19T11:36:02;15.90;34.40
79760;DHT22;70512;42.122;24.732;2023-11-19T11:38:29;16.00;34.10
79760;DHT22;70512;42.122;24.732;2023-11-19T11:41:23;16.00;33.50
79760;DHT22;70512;42.122;24.732;2023-11-19T11:43:53;15.70;34.00
79760;DHT22;70512;42.122;24.732;2023-11-19T11:49:06;15.40;34.90
79760;DHT22;70512;42.122;24.732;2023-11-19T11:57:06;14.20;36.40
79760;DHT22;70512;42.122;24.732;2023-11-19T11:59:41;13.20;38.80
79760;DHT22;70512;42.122;24.732;2023-11-19T12:02:03;12.70;40.10
79760;DHT22;70512;42.122;24.732;2023-11-19T12:04:31;12.10;41.70
79760;DHT22;70512;42.122;24.732;2023-11-19T12:07:11;11.90;42.60
79760;DHT22;70512;42.122;24.732;2023-11-19T12:09:34;11.80;43.20
79760;DHT22;70512;42.122;24.732;2023-11-19T12:12:19;11.60;43.90
79760;DHT22;70512;42.122;24.732;2023-11-19T12:15:03;11.40;43.90
79760;DHT22;70512;42.122;24.732;2023-11-19T12:17:49;11.40;44.20
79760;DHT22;70512;42.122;24.732;2023-11-19T12:20:18;11.60;44.30
79760;DHT22;70512;42.122;24.732;2023-11-19T12:22:47;12.00;43.40
79760;DHT22;70512;42.122;24.732;2023-11-19T12:25:16;12.30;42.80
79760;DHT22;70512;42.122;24.732;2023-11-19T12:27:45;12.30;42.80
79760;DHT22;70512;42.122;24.732;2023-11-19T12:30:26;12.20;43.10
79760;DHT22;70512;42.122;24.732;2023-11-19T12:32:55;11.90;43.60
79760;DHT22;70512;42.122;24.732;2023-11-19T12:35:23;11.90;44.20
79760;DHT22;70512;42.122;24.732;2023-11-19T12:37:52;11.60;44.40
79760;DHT22;70512;42.122;24.732;2023-11-19T12:40:26;11.50;44.80
79760;DHT22;70512;42.122;24.732;2023-11-19T12:42:55;11.40;45.10
79760;DHT22;70512;42.122;24.732;2023-11-19T12:45:24;11.60;45.40
79760;DHT22;70512;42.122;24.732;2023-11-19T12:48:05;11.70;44.90
79760;DHT22;70512;42.122;24.732;2023-11-19T12:53:20;12.10;44.30
79760;DHT22;70512;42.122;24.732;2023-11-19T12:55:48;12.10;44.10
79760;DHT22;70512;42.122;24.732;2023-11-19T12:58:35;12.20;43.70
79760;DHT22;70512;42.122;24.732;2023-11-19T13:01:09;12.30;43.40
79760;DHT22;70512;42.122;24.732;2023-11-19T13:03:36;12.60;43.00
79760;DHT22;70512;42.122;24.732;2023-11-19T13:06:06;12.50;42.80
79760;DHT22;70512;42.122;24.732;2023-11-19T13:08:46;12.40;43.10
79760;DHT22;70512;42.122;24.732;2023-11-19T13:11:32;12.40;43.40
79760;DHT22;70512;42.122;24.732;2023-11-19T13:14:01;12.20;43.60
79760;DHT22;70512;42.122;24.732;2023-11-19T13:16:31;12.10;43.70
79760;DHT22;70512;42.122;24.732;2023-11-19T13:18:59;12.20;43.90
79760;DHT22;70512;42.122;24.732;2023-11-19T13:21:30;12.10;44.30
79760;DHT22;70512;42.122;24.732;2023-11-19T13:23:58;12.00;44.20
79760;DHT22;70512;42.122;24.732;2023-11-19T13:26:30;11.80;44.40
79760;DHT22;70512;42.122;24.732;2023-11-19T13:28:58;11.50;45.30
79760;DHT22;70512;42.122;24.732;2023-11-19T13:31:26;11.40;45.90
79760;DHT22;70512;42.122;24.732;2023-11-19T13:33:54;11.20;46.40
79760;DHT22;70512;42.122;24.732;2023-11-19T13:36:21;11.10;46.50
79760;DHT22;70512;42.122;24.732;2023-11-19T13:38:49;10.90;46.90
79760;DHT22;70512;42.122;24.732;2023-11-19T13:41:17;10.70;47.40
79760;DHT22;70512;42.122;24.732;2023-11-19T13:43:45;10.70;47.70
79760;DHT22;70512;42.122;24.732;2023-11-19T13:46:12;10.60;47.90
79760;DHT22;70512;42.122;24.732;2023-11-19T13:48:40;10.50;48.20
79760;DHT22;70512;42.122;24.732;2023-11-19T13:51:07;10.40;48.50
79760;DHT22;70512;42.122;24.732;2023-11-19T13:53:36;10.30;48.70
79760;DHT22;70512;42.122;24.732;2023-11-19T13:56:04;10.30;48.80
79760;DHT22;70512;42.122;24.732;2023-11-19T13:58:32;10.30;48.90
79760;DHT22;70512;42.122;24.732;2023-11-19T14:01:00;10.20;49.00
79760;DHT22;70512;42.122;24.732;2023-11-19T14:03:32;10.20;49.20
79760;DHT22;70512;42.122;24.732;2023-11-19T14:05:57;10.20;49.40
79760;DHT22;70512;42.122;24.732;2023-11-19T14:08:24;10.20;49.60
79760;DHT22;70512;42.122;24.732;2023-11-19T14:10:52;10.20;49.50
79760;DHT22;70512;42.122;24.732;2023-11-19T14:13:22;10.10;49.60
79760;DHT22;70512;42.122;24.732;2023-11-19T14:15:56;10.10;49.90
79760;DHT22;70512;42.122;24.732;2023-11-19T14:18:19;10.00;50.20
79760;DHT22;70512;42.122;24.732;2023-11-19T14:20:47;9.90;50.50
79760;DHT22;70512;42.122;24.732;2023-11-19T14:23:14;9.90;50.60
79760;DHT22;70512;42.122;24.732;2023-11-19T14:25:43;9.80;50.60
79760;DHT22;70512;42.122;24.732;2023-11-19T14:28:11;9.80;50.80
79760;DHT22;70512;42.122;24.732;2023-11-19T14:30:38;9.80;50.80
79760;DHT22;70512;42.122;24.732;2023-11-19T14:33:08;9.70;50.80
79760;DHT22;70512;42.122;24.732;2023-11-19T14:35:35;9.60;51.00
79760;DHT22;70512;42.122;24.732;2023-11-19T14:38:03;9.60;51.20
79760;DHT22;70512;42.122;24.732;2023-11-19T14:40:32;9.60;51.20
79760;DHT22;70512;42.122;24.732;2023-11-19T14:43:00;9.60;51.10
79760;DHT22;70512;42.122;24.732;2023-11-19T14:45:27;9.60;51.10
79760;DHT22;70512;42.122;24.732;2023-11-19T14:47:55;9.50;50.90
79760;DHT22;70512;42.122;24.732;2023-11-19T14:50:26;9.50;51.00
79760;DHT22;70512;42.122;24.732;2023-11-19T14:52:54;9.40;51.10
79760;DHT22;70512;42.122;24.732;2023-11-19T14:55:22;9.50;51.30
79760;DHT22;70512;42.122;24.732;2023-11-19T14:57:49;9.40;51.30
79760;DHT22;70512;42.122;24.732;2023-11-19T15:00:18;9.40;51.30
79760;DHT22;70512;42.122;24.732;2023-11-19T15:02:50;9.30;51.20
79760;DHT22;70512;42.122;24.732;2023-11-19T15:05:15;9.30;51.20
79760;DHT22;70512;42.122;24.732;2023-11-19T15:07:42;9.30;51.30
79760;DHT22;70512;42.122;24.732;2023-11-19T15:10:11;9.20;51.30
79760;DHT22;70512;42.122;24.732;2023-11-19T15:12:40;9.20;51.40
79760;DHT22;70512;42.122;24.732;2023-11-19T15:15:09;9.20;51.50
79760;DHT22;70512;42.122;24.732;2023-11-19T15:17:36;9.20;51.40
79760;DHT22;70512;42.122;24.732;2023-11-19T15:20:05;9.20;51.40
79760;DHT22;70512;42.122;24.732;2023-11-19T15:22:32;9.20;51.40
79760;DHT22;70512;42.122;24.732;2023-11-19T15:25:00;9.20;51.60
79760;DHT22;70512;42.122;24.732;2023-11-19T15:27:28;9.20;51.60
79760;DHT22;70512;42.122;24.732;2023-11-19T15:29:56;9.10;52.10
79760;DHT22;70512;42.122;24.732;2023-11-19T15:32:25;9.00;52.00
79760;DHT22;70512;42.122;24.732;2023-11-19T15:34:52;9.00;52.20
79760;DHT22;70512;42.122;24.732;2023-11-19T15:37:20;9.00;52.40
79760;DHT22;70512;42.122;24.732;2023-11-19T15:39:49;8.90;52.30
79760;DHT22;70512;42.122;24.732;2023-11-19T15:42:18;8.90;52.50
79760;DHT22;70512;42.122;24.732;2023-11-19T15:44:45;8.90;52.30
79760;DHT22;70512;42.122;24.732;2023-11-19T15:47:13;8.90;52.30
79760;DHT22;70512;42.122;24.732;2023-11-19T15:49:41;8.90;52.30
79760;DHT22;70512;42.122;24.732;2023-11-19T15:52:08;8.90;52.10
79760;DHT22;70512;42.122;24.732;2023-11-19T15:54:36;8.90;52.20